createdAt,value
2019-02-23T00:03:18.120Z,2.60
2019-02-23T00:08:13.948Z,2.60
2019-02-23T00:13:09.639Z,2.60
2019-02-23T00:18:09.407Z,2.50
2019-02-23T00:23:06.026Z,2.40
2019-02-23T00:28:04.977Z,2.30
2019-02-23T00:33:00.623Z,2.20
2019-02-23T00:37:56.293Z,2.10
2019-02-23T00:42:51.980Z,2.00
2019-02-23T00:47:47.586Z,1.90
2019-02-23T00:52:43.253Z,1.80
2019-02-23T00:57:39.049Z,1.70
2019-02-23T01:02:34.798Z,1.70
2019-02-23T01:07:30.592Z,1.60
2019-02-23T01:12:26.266Z,1.60
2019-02-23T01:17:21.898Z,1.60
2019-02-23T01:22:17.637Z,1.50
2019-02-23T01:27:13.414Z,1.50
2019-02-23T01:32:09.048Z,1.40
2019-02-23T01:37:04.754Z,1.20
2019-02-23T01:42:01.502Z,1.10
2019-02-23T01:46:57.192Z,0.90
2019-02-23T01:51:52.902Z,0.80
2019-02-23T01:56:49.637Z,0.80
2019-02-23T02:01:45.250Z,0.80
2019-02-23T02:06:40.979Z,0.90
2019-02-23T02:11:36.768Z,0.90
2019-02-23T02:16:32.554Z,0.90
2019-02-23T02:21:28.349Z,0.90
2019-02-23T02:26:24.138Z,0.80
2019-02-23T02:31:19.810Z,0.80
2019-02-23T02:36:15.536Z,0.80
2019-02-23T02:41:11.193Z,0.70
2019-02-23T02:46:09.015Z,0.70
2019-02-23T02:51:04.653Z,0.70
2019-02-23T02:56:00.413Z,0.60
2019-02-23T03:00:56.070Z,0.50
2019-02-23T03:05:51.686Z,0.30
2019-02-23T03:10:47.357Z,0.10
2019-02-23T03:15:43.087Z,0.10
2019-02-23T03:20:38.766Z,0.00
2019-02-23T03:25:34.532Z,-0.10
2019-02-23T03:30:30.181Z,-0.20
2019-02-23T03:35:25.832Z,-0.30
2019-02-23T03:40:21.546Z,-0.50
2019-02-23T03:45:17.336Z,-0.60
2019-02-23T03:50:13.013Z,-0.60
2019-02-23T03:55:08.828Z,-0.50
2019-02-23T04:00:04.668Z,-0.60
2019-02-23T04:05:00.652Z,-0.80
2019-02-23T04:09:56.463Z,-1.10
2019-02-23T04:14:52.092Z,-1.20
2019-02-23T04:19:47.766Z,-1.30
2019-02-23T04:24:43.397Z,-1.30
2019-02-23T04:29:39.089Z,-1.40
2019-02-23T04:34:34.744Z,-1.50
2019-02-23T04:39:30.393Z,-1.60
2019-02-23T04:44:26.072Z,-1.70
2019-02-23T04:49:21.732Z,-1.70
2019-02-23T04:54:17.358Z,-1.70
2019-02-23T04:59:13.021Z,-1.80
2019-02-23T05:04:08.738Z,-1.90
2019-02-23T05:09:04.810Z,-1.90
2019-02-23T05:14:00.482Z,-2.00
2019-02-23T05:18:56.029Z,-2.20
2019-02-23T05:23:51.816Z,-2.20
2019-02-23T05:28:47.494Z,-2.30
2019-02-23T05:33:43.200Z,-2.40
2019-02-23T05:38:39.908Z,-2.40
2019-02-23T05:43:35.621Z,-2.40
2019-02-23T05:48:31.332Z,-2.50
2019-02-23T05:53:26.997Z,-2.60
2019-02-23T05:58:22.843Z,-2.60
2019-02-23T06:03:18.861Z,-2.70
2019-02-23T06:08:14.626Z,-2.70
2019-02-23T06:13:11.457Z,-2.90
2019-02-23T06:18:07.426Z,-3.10
2019-02-23T06:23:03.106Z,-3.10
2019-02-23T06:27:59.144Z,-3.00
2019-02-23T06:32:54.822Z,-2.90
2019-02-23T06:37:53.333Z,-2.70
2019-02-23T06:42:47.885Z,-2.50
2019-02-23T06:47:43.994Z,-2.30
2019-02-23T06:52:39.664Z,-2.30
2019-02-23T06:57:35.503Z,-2.10
2019-02-23T07:02:31.207Z,-2.00
2019-02-23T07:07:27.007Z,-1.90
2019-02-23T07:12:22.648Z,-1.80
2019-02-23T07:17:18.915Z,-1.60
2019-02-23T07:22:15.757Z,-1.40
2019-02-23T07:27:10.844Z,-1.00
2019-02-23T07:32:06.556Z,-0.90
2019-02-23T07:37:05.391Z,-0.80
2019-02-23T07:42:01.120Z,-0.60
2019-02-23T07:46:56.703Z,-0.40
2019-02-23T07:51:52.361Z,-0.30
2019-02-23T07:56:48.144Z,-0.10
2019-02-23T08:01:43.806Z,0.00
2019-02-23T08:06:39.485Z,0.20
2019-02-23T08:11:35.241Z,0.30
2019-02-23T08:16:32.047Z,0.50
2019-02-23T08:21:27.748Z,0.70
2019-02-23T08:26:23.405Z,0.90
2019-02-23T08:31:19.112Z,1.20
2019-02-23T08:36:14.744Z,1.40
2019-02-23T08:41:11.248Z,1.50
2019-02-23T08:46:07.002Z,1.80
2019-02-23T08:51:02.686Z,1.90
2019-02-23T08:55:58.356Z,2.10
2019-02-23T09:00:54.121Z,2.30
2019-02-23T09:05:50.468Z,2.40
2019-02-23T09:10:46.163Z,2.50
2019-02-23T09:15:42.508Z,2.60
2019-02-23T09:20:38.181Z,2.70
2019-02-23T09:25:33.835Z,2.90
2019-02-23T09:30:29.879Z,3.10
2019-02-23T09:35:25.547Z,3.30
2019-02-23T09:40:21.431Z,3.50
2019-02-23T09:45:18.205Z,3.50
2019-02-23T09:50:13.847Z,3.50
2019-02-23T09:55:09.912Z,3.70
2019-02-23T10:00:06.233Z,3.90
2019-02-23T10:05:02.022Z,4.20
2019-02-23T10:09:57.745Z,4.50
2019-02-23T10:14:53.383Z,4.80
2019-02-23T10:19:49.071Z,5.10
2019-02-23T10:24:45.273Z,5.30
2019-02-23T10:29:40.982Z,5.50
2019-02-23T10:34:36.982Z,5.80
2019-02-23T10:39:32.947Z,6.10
2019-02-23T10:44:28.937Z,6.30
2019-02-23T10:49:24.690Z,6.50
2019-02-23T10:54:20.395Z,6.60
2019-02-23T10:59:16.085Z,6.60
2019-02-23T11:04:11.772Z,6.90
2019-02-23T11:09:16.559Z,7.20
2019-02-23T11:14:12.269Z,7.50
2019-02-23T11:19:07.942Z,7.80
2019-02-23T11:24:03.618Z,8.00
2019-02-23T11:28:59.337Z,8.00
2019-02-23T11:33:55.095Z,8.10
2019-02-23T11:38:50.849Z,8.00
2019-02-23T11:43:46.534Z,8.30
2019-02-23T11:48:42.269Z,8.70
2019-02-23T11:53:37.964Z,9.10
2019-02-23T11:58:33.791Z,9.50
2019-02-23T12:03:29.463Z,9.70
2019-02-23T12:08:25.217Z,9.60
2019-02-23T12:13:20.928Z,9.50
2019-02-23T12:18:16.743Z,9.50
2019-02-23T12:23:12.501Z,9.50
2019-02-23T12:28:08.412Z,9.50
2019-02-23T12:33:04.141Z,9.60
2019-02-23T12:37:59.932Z,9.90
2019-02-23T12:42:55.736Z,9.40
2019-02-23T12:47:51.548Z,8.90
2019-02-23T12:52:47.202Z,8.90
2019-02-23T12:57:42.993Z,9.30
2019-02-23T13:02:38.719Z,9.80
2019-02-23T13:07:34.649Z,10.00
2019-02-23T13:13:01.143Z,10.30
2019-02-23T13:18:39.375Z,10.00
2019-02-23T13:24:28.141Z,10.10
2019-02-23T13:30:00.703Z,10.10
2019-02-23T13:35:32.498Z,9.80
2019-02-23T13:41:27.360Z,9.50
2019-02-23T13:46:46.566Z,9.00
2019-02-23T13:52:44.256Z,8.70
2019-02-23T13:58:12.385Z,9.10
2019-02-23T14:03:39.090Z,9.80
2019-02-23T14:09:27.864Z,10.30
2019-02-23T14:14:52.892Z,11.40
2019-02-23T14:20:28.527Z,12.10
2019-02-23T14:25:52.322Z,11.40
2019-02-23T14:31:28.725Z,11.40
2019-02-23T14:36:49.319Z,11.90
2019-02-23T14:41:57.159Z,12.00
2019-02-23T14:47:31.133Z,11.30
2019-02-23T14:53:15.919Z,10.00
2019-02-23T14:58:57.932Z,12.10
2019-02-23T15:04:49.542Z,13.60
2019-02-23T15:09:54.375Z,13.40
2019-02-23T15:15:21.248Z,12.00
2019-02-23T15:20:44.238Z,12.30
2019-02-23T15:26:07.006Z,10.00
2019-02-23T15:31:28.959Z,7.90
2019-02-23T15:37:00.212Z,7.10
2019-02-23T15:42:40.416Z,6.60
2019-02-23T15:48:22.354Z,6.20
2019-02-23T15:53:18.057Z,5.80
2019-02-23T15:58:13.679Z,5.50
2019-02-23T16:03:09.382Z,5.10
2019-02-23T16:08:06.260Z,4.80
2019-02-23T16:13:01.964Z,4.40
2019-02-23T16:17:57.705Z,4.10
2019-02-23T16:22:53.371Z,3.90
2019-02-23T16:27:49.176Z,3.70
2019-02-23T16:32:44.981Z,3.50
2019-02-23T16:37:40.664Z,3.30
2019-02-23T16:42:36.344Z,3.20
2019-02-23T16:47:32.029Z,3.20
2019-02-23T16:52:27.657Z,3.00
2019-02-23T16:57:24.441Z,2.90
2019-02-23T17:02:20.344Z,2.80
2019-02-23T17:07:16.137Z,2.60
2019-02-23T17:12:11.831Z,2.40
2019-02-23T17:17:07.603Z,2.20
2019-02-23T17:22:03.319Z,2.20
2019-02-23T17:26:59.116Z,2.10
2019-02-23T17:31:55.177Z,2.00
2019-02-23T17:36:52.022Z,1.90
2019-02-23T17:41:47.790Z,1.90
2019-02-23T17:46:43.466Z,1.80
2019-02-23T17:51:39.130Z,1.70
2019-02-23T17:56:35.921Z,1.70
2019-02-23T18:01:31.649Z,1.60
2019-02-23T18:06:27.428Z,1.50
2019-02-23T18:11:23.347Z,1.40
2019-02-23T18:16:19.061Z,1.40
2019-02-23T18:21:15.496Z,1.30
2019-02-23T18:26:11.281Z,1.20
2019-02-23T18:31:07.005Z,1.00
2019-02-23T18:36:02.750Z,0.80
2019-02-23T18:41:00.057Z,0.70
2019-02-23T18:45:55.813Z,0.60
2019-02-23T18:50:51.541Z,0.50
2019-02-23T18:55:50.164Z,0.40
2019-02-23T19:00:45.832Z,0.20
2019-02-23T19:05:49.534Z,0.10
2019-02-23T19:10:39.149Z,0.10
2019-02-23T19:15:36.809Z,0.10
2019-02-23T19:20:32.224Z,0.00
2019-02-23T19:25:31.597Z,-0.10
2019-02-23T19:30:27.480Z,-0.10
2019-02-23T19:35:23.184Z,-0.30
2019-02-23T19:40:19.248Z,-0.30
2019-02-23T19:45:14.967Z,-0.40
2019-02-23T19:50:18.365Z,-0.60
2019-02-23T19:55:15.594Z,-0.70
2019-02-23T20:00:11.476Z,-0.70
2019-02-23T20:05:08.026Z,-0.80
2019-02-23T20:10:04.970Z,-0.90
2019-02-23T20:15:02.256Z,-1.00
2019-02-23T20:19:59.124Z,-1.00
2019-02-23T20:24:54.843Z,-1.10
2019-02-23T20:29:50.551Z,-1.20
2019-02-23T20:34:46.673Z,-1.40
2019-02-23T20:39:42.369Z,-1.40
2019-02-23T20:44:38.075Z,-1.50
2019-02-23T20:49:33.796Z,-1.60
2019-02-23T20:54:30.352Z,-1.60
2019-02-23T20:59:26.259Z,-1.60
2019-02-23T21:04:21.988Z,-1.80
2019-02-23T21:09:17.700Z,-1.90
2019-02-23T21:14:13.384Z,-1.90
2019-02-23T21:19:09.092Z,-2.00
2019-02-23T21:24:04.760Z,-2.10
2019-02-23T21:29:00.478Z,-2.20
2019-02-23T21:33:57.886Z,-2.30
2019-02-23T21:38:53.743Z,-2.30
2019-02-23T21:43:49.474Z,-2.30
2019-02-23T21:48:45.180Z,-2.30
2019-02-23T21:53:40.888Z,-2.40
2019-02-23T21:58:36.708Z,-2.50
2019-02-23T22:03:32.553Z,-2.60
2019-02-23T22:08:28.212Z,-2.70
2019-02-23T22:13:23.899Z,-2.70
2019-02-23T22:18:19.666Z,-2.80
2019-02-23T22:23:15.358Z,-2.80
2019-02-23T22:28:11.155Z,-2.80
2019-02-23T22:33:06.840Z,-2.90
2019-02-23T22:38:02.918Z,-2.90
2019-02-23T22:42:58.534Z,-3.00
2019-02-23T22:47:54.257Z,-3.10
2019-02-23T22:52:49.917Z,-3.20
2019-02-23T22:57:45.781Z,-3.20
2019-02-23T23:02:41.487Z,-3.20
2019-02-23T23:07:37.329Z,-3.30
2019-02-23T23:12:33.081Z,-3.30
2019-02-23T23:17:28.786Z,-3.40
2019-02-23T23:22:24.502Z,-3.40
2019-02-23T23:27:20.299Z,-3.60
2019-02-23T23:32:15.960Z,-3.80
2019-02-23T23:37:11.637Z,-3.90
2019-02-23T23:42:07.377Z,-3.90
2019-02-23T23:47:03.259Z,-3.90
2019-02-23T23:51:58.861Z,-3.90
2019-02-23T23:56:54.572Z,-3.90
